This demonstration page uses our WeatherBlox Daily Observations layout. Learn more.

39.29038, -76.61219

Hourly Observations for July 12, 2019

Temp ( °F °C ) Dew Point ( °F °C ) Humidity (%) Winds ( mph kmh ) Pressure ( in mb ) Visibility ( mi km ) Precip ( " mm )
12:54 am 00:54 undefined 74 23.3 71 21.7 91 91 undefined N/A 29.77 1008 N/A 0 0
1:54 am 01:54 undefined 73 22.8 70 21.1 90 90 undefined N/A 29.77 1008 N/A 0 0
2:54 am 02:54 undefined 73 22.8 70 21.1 90 90 undefined N/A 29.77 1008 N/A 0 0
3:54 am 03:54 undefined 72 22.2 69 20.6 91 91 undefined N/A 29.74 1007 N/A 0 0
4:54 am 04:54 undefined 72 22.2 69 20.6 91 91 undefined N/A 29.77 1008 N/A 0 0
5:54 am 05:54 undefined 72 22.2 69 20.6 91 91 undefined N/A 29.77 1008 N/A 0 0
6:54 am 06:54 undefined 73 22.8 69 20.6 87 87 undefined N/A 29.8 1009 N/A 0 0
7:54 am 07:54 undefined 76 24.4 69 20.6 79 79 undefined N/A 29.8 1009 N/A 0 0
8:54 am 08:54 undefined 78 25.6 69 20.6 74 74 undefined N/A 29.83 1010 N/A 0 0
9:54 am 09:54 undefined 82 27.8 69 20.6 65 65 undefined N/A 29.83 1010 N/A 0 0
10:54 am 10:54 undefined 85 29.4 70 21.1 61 61 undefined N/A 29.8 1009 N/A 0 0
11:54 am 11:54 undefined 87 30.6 68 20 53 53 undefined N/A 29.8 1009 N/A 0 0
12:54 pm 12:54 undefined 89 31.7 67 19.4 48 48 undefined N/A 29.8 1009 N/A 0 0
1:54 pm 13:54 undefined 87 30.6 66 18.9 50 50 undefined N/A 29.8 1009 N/A 0 0
2:54 pm 14:54 undefined 89 31.7 65 18.3 45 45 undefined N/A 29.8 1009 N/A 0 0
3:54 pm 15:54 undefined 90 32.2 64 17.8 42 42 undefined N/A 29.8 1009 N/A 0 0
4:54 pm 16:54 undefined 90 32.2 63 17.2 41 41 undefined N/A 29.77 1008 N/A 0 0
5:54 pm 17:54 undefined 89 31.7 62 16.7 41 41 undefined N/A 29.8 1009 N/A 0 0
6:54 pm 18:54 undefined 88 31.1 61 16.1 40 40 undefined N/A 29.8 1009 N/A 0 0
7:54 pm 19:54 undefined 87 30.6 62 16.7 43 43 undefined N/A 29.83 1010 N/A 0 0
8:54 pm 20:54 undefined 86 30 64 17.8 48 48 undefined N/A 29.83 1010 N/A 0 0
9:54 pm 21:54 undefined 85 29.4 63 17.2 48 48 undefined N/A 29.85 1011 N/A 0 0
10:54 pm 22:54 undefined 83 28.3 63 17.2 51 51 undefined N/A 29.88 1012 N/A 0 0
11:54 pm 23:54 undefined 81 27.2 63 17.2 54 54 undefined N/A 29.88 1012 N/A 0 0

Powered by AerisWeather